createdAt,value
2023-04-02T00:01:33.218Z,99251.38
2023-04-02T00:04:38.134Z,99267.78
2023-04-02T00:07:41.170Z,99258.25
2023-04-02T00:10:48.475Z,99269.63
2023-04-02T00:13:52.195Z,99264.97
2023-04-02T00:16:57.073Z,99274.28
2023-04-02T00:20:08.191Z,99265.44
2023-04-02T00:23:13.534Z,99262.84
2023-04-02T00:26:37.150Z,99270.75
2023-04-02T00:29:55.754Z,99263.66
2023-04-02T00:32:59.713Z,99261.06
2023-04-02T00:36:07.990Z,99264.59
2023-04-02T00:39:19.299Z,99260.22
2023-04-02T00:42:25.272Z,99269.87
2023-04-02T00:45:35.771Z,99267.34
2023-04-02T00:48:59.034Z,99265.75
2023-04-02T00:52:13.252Z,99276.16
2023-04-02T00:55:17.965Z,99270.94
2023-04-02T00:58:29.992Z,99269.31
2023-04-02T01:01:42.598Z,99273.53
2023-04-02T01:05:05.599Z,99272.62
2023-04-02T01:08:27.546Z,99275.38
2023-04-02T01:12:01.072Z,99269.34
2023-04-02T01:15:21.487Z,99271.09
2023-04-02T01:18:51.377Z,99275.50
2023-04-02T01:22:00.747Z,99276.31
2023-04-02T01:25:06.537Z,99271.19
2023-04-02T01:28:32.065Z,99272.97
2023-04-02T01:31:36.882Z,99275.50
2023-04-02T01:34:40.338Z,99271.09
2023-04-02T01:37:46.767Z,99270.31
2023-04-02T01:40:58.721Z,99269.41
2023-04-02T01:44:18.591Z,99279.00
2023-04-02T01:47:29.063Z,99276.41
2023-04-02T01:50:38.452Z,99278.94
2023-04-02T01:53:41.300Z,99280.72
2023-04-02T01:56:45.779Z,99280.09
2023-04-02T01:59:48.748Z,99289.75
2023-04-02T02:02:52.185Z,99287.81
2023-04-02T02:05:56.805Z,99292.84
2023-04-02T02:09:04.522Z,99289.31
2023-04-02T02:12:07.453Z,99290.13
2023-04-02T02:15:17.169Z,99289.28
2023-04-02T02:18:23.558Z,99292.78
2023-04-02T02:21:52.901Z,99296.38
2023-04-02T02:24:58.720Z,99296.44
2023-04-02T02:28:19.099Z,99302.47
2023-04-02T02:31:29.269Z,99293.66
2023-04-02T02:34:41.613Z,99308.47
2023-04-02T02:37:47.763Z,99296.22
2023-04-02T02:40:56.686Z,99297.19
2023-04-02T02:44:03.067Z,99300.72
2023-04-02T02:47:13.933Z,99305.84
2023-04-02T02:50:23.723Z,99311.06
2023-04-02T02:53:26.941Z,99303.22
2023-04-02T02:56:34.450Z,99300.63
2023-04-02T02:59:38.380Z,99305.84
2023-04-02T03:02:43.518Z,99293.66
2023-04-02T03:05:53.017Z,99295.44
2023-04-02T03:09:07.574Z,99298.81
2023-04-02T03:12:13.750Z,99308.66
2023-04-02T03:15:35.546Z,99306.81
2023-04-02T03:18:41.666Z,99304.84
2023-04-02T03:21:51.807Z,99310.25
2023-04-02T03:25:05.956Z,99296.06
2023-04-02T03:28:17.790Z,99314.25
2023-04-02T03:31:49.793Z,99312.50
2023-04-02T03:34:58.209Z,99302.94
2023-04-02T03:38:11.865Z,99308.25
2023-04-02T03:41:24.812Z,99307.41
2023-04-02T03:44:45.962Z,99303.16
2023-04-02T03:48:06.143Z,99309.84
2023-04-02T03:51:22.070Z,99301.34
2023-04-02T03:54:25.502Z,99308.13
2023-04-02T03:57:38.418Z,99313.22
2023-04-02T04:01:06.598Z,99314.94
2023-04-02T04:04:16.611Z,99326.34
2023-04-02T04:07:29.729Z,99327.09
2023-04-02T04:10:34.383Z,99320.03
2023-04-02T04:13:53.653Z,99329.47
2023-04-02T04:16:56.855Z,99332.34
2023-04-02T04:20:08.265Z,99335.59
2023-04-02T04:23:20.038Z,99336.50
2023-04-02T04:26:35.812Z,99335.63
2023-04-02T04:30:05.869Z,99345.22
2023-04-02T04:33:34.615Z,99340.75
2023-04-02T04:36:48.053Z,99348.72
2023-04-02T04:39:56.772Z,99352.13
2023-04-02T04:43:06.076Z,99355.66
2023-04-02T04:46:19.496Z,99355.81
2023-04-02T04:49:22.738Z,99355.13
2023-04-02T04:52:32.237Z,99355.06
2023-04-02T04:55:39.721Z,99355.81
2023-04-02T04:59:04.176Z,99350.59
2023-04-02T05:02:24.106Z,99354.25
2023-04-02T05:05:34.558Z,99349.78
2023-04-02T05:08:45.436Z,99347.22
2023-04-02T05:12:19.368Z,99350.88
2023-04-02T05:15:32.177Z,99356.16
2023-04-02T05:18:40.381Z,99364.16
2023-04-02T05:21:50.408Z,99368.50
2023-04-02T05:25:23.388Z,99369.41
2023-04-02T05:28:32.073Z,99376.53
2023-04-02T05:31:44.146Z,99384.37
2023-04-02T05:34:53.206Z,99369.03
2023-04-02T05:37:55.881Z,99376.22
2023-04-02T05:41:17.329Z,99375.44
2023-04-02T05:44:28.569Z,99375.78
2023-04-02T05:47:34.316Z,99384.72
2023-04-02T05:50:43.339Z,99386.72
2023-04-02T05:53:53.682Z,99402.66
2023-04-02T05:57:03.530Z,99398.50
2023-04-02T06:00:18.131Z,99396.94
2023-04-02T06:03:27.475Z,99397.94
2023-04-02T06:06:42.606Z,99411.94
2023-04-02T06:09:56.152Z,99398.13
2023-04-02T06:13:08.634Z,99406.19
2023-04-02T06:16:16.691Z,99399.56
2023-04-02T06:19:27.514Z,99398.03
2023-04-02T06:22:37.930Z,99393.81
2023-04-02T06:26:01.780Z,99400.06
2023-04-02T06:29:24.880Z,99395.88
2023-04-02T06:32:29.600Z,99402.06
2023-04-02T06:35:35.996Z,99412.72
2023-04-02T06:38:40.911Z,99408.53
2023-04-02T06:41:46.735Z,99409.44
2023-04-02T06:44:52.478Z,99406.91
2023-04-02T06:48:01.997Z,99411.41
2023-04-02T06:51:17.851Z,99414.13
2023-04-02T06:54:21.773Z,99421.16
2023-04-02T06:57:25.083Z,99415.00
2023-04-02T07:00:38.485Z,99417.66
2023-04-02T07:03:43.005Z,99424.66
2023-04-02T07:06:46.799Z,99421.16
2023-04-02T07:09:49.983Z,99421.13
2023-04-02T07:12:52.914Z,99430.72
2023-04-02T07:15:57.427Z,99423.44
2023-04-02T07:19:01.302Z,99416.94
2023-04-02T07:22:05.782Z,99416.94
2023-04-02T07:25:09.633Z,99426.56
2023-04-02T07:28:14.038Z,99423.03
2023-04-02T07:31:17.237Z,99429.22
2023-04-02T07:34:20.054Z,99447.19
2023-04-02T07:37:22.846Z,99431.63
2023-04-02T07:40:25.737Z,99443.94
2023-04-02T07:43:28.399Z,99450.09
2023-04-02T07:46:31.111Z,99453.56
2023-04-02T07:49:34.041Z,99453.53
2023-04-02T07:52:43.895Z,99459.53
2023-04-02T07:55:52.466Z,99464.69
2023-04-02T07:58:55.484Z,99460.00
2023-04-02T08:01:58.838Z,99461.66
2023-04-02T08:05:02.606Z,99465.63
2023-04-02T08:08:06.084Z,99452.59
2023-04-02T08:11:09.735Z,99454.19
2023-04-02T08:14:12.609Z,99463.62
2023-04-02T08:17:15.948Z,99467.13
2023-04-02T08:20:19.458Z,99478.44
2023-04-02T08:23:23.099Z,99472.34
2023-04-02T08:26:26.098Z,99482.91
2023-04-02T08:29:32.323Z,99481.03
2023-04-02T08:32:35.903Z,99478.88
2023-04-02T08:35:39.589Z,99488.25
2023-04-02T08:38:42.337Z,99477.28
2023-04-02T08:42:14.595Z,99484.84
2023-04-02T08:45:32.379Z,99483.78
2023-04-02T08:48:40.758Z,99470.91
2023-04-02T08:51:46.207Z,99468.56
2023-04-02T08:54:50.426Z,99481.31
2023-04-02T08:58:37.848Z,99475.87
2023-04-02T09:02:02.708Z,99478.81
2023-04-02T09:05:08.251Z,99472.28
2023-04-02T09:08:20.661Z,99481.28
2023-04-02T09:11:23.130Z,99473.81
2023-04-02T09:14:45.257Z,99480.44
2023-04-02T09:17:54.200Z,99481.91
2023-04-02T09:20:58.207Z,99485.28
2023-04-02T09:24:01.871Z,99486.00
2023-04-02T09:27:22.550Z,99490.06
2023-04-02T09:31:02.203Z,99485.44
2023-04-02T09:34:35.353Z,99490.16
2023-04-02T09:37:37.967Z,99508.69
2023-04-02T09:40:48.870Z,99511.34
2023-04-02T09:44:19.173Z,99521.72
2023-04-02T09:47:27.363Z,99514.31
2023-04-02T09:50:31.782Z,99522.16
2023-04-02T09:53:37.363Z,99515.84
2023-04-02T09:56:41.220Z,99518.03
2023-04-02T09:59:44.434Z,99512.84
2023-04-02T10:02:59.537Z,99523.84
2023-04-02T10:06:14.894Z,99518.72
2023-04-02T10:09:32.538Z,99516.06
2023-04-02T10:12:41.150Z,99523.75
2023-04-02T10:16:09.420Z,99519.75
2023-04-02T10:19:27.833Z,99520.75
2023-04-02T10:22:30.810Z,99516.53
2023-04-02T10:25:43.138Z,99515.78
2023-04-02T10:29:06.771Z,99513.09
2023-04-02T10:32:32.299Z,99515.09
2023-04-02T10:35:46.219Z,99520.25
2023-04-02T10:38:53.265Z,99522.25
2023-04-02T10:42:11.206Z,99509.50
2023-04-02T10:45:40.002Z,99499.72
2023-04-02T10:49:06.031Z,99500.03
2023-04-02T10:52:17.698Z,99508.47
2023-04-02T10:55:29.009Z,99498.66
2023-04-02T10:58:37.642Z,99501.16
2023-04-02T11:01:43.314Z,99502.53
2023-04-02T11:04:47.059Z,99499.28
2023-04-02T11:08:04.363Z,99503.03
2023-04-02T11:11:14.374Z,99505.16
2023-04-02T11:14:29.754Z,99500.97
2023-04-02T11:17:32.934Z,99496.09
2023-04-02T11:21:04.783Z,99496.56
2023-04-02T11:24:31.755Z,99485.16
2023-04-02T11:27:34.586Z,99484.03
2023-04-02T11:30:37.926Z,99479.22
2023-04-02T11:33:44.999Z,99473.94
2023-04-02T11:36:55.466Z,99479.19
2023-04-02T11:40:07.834Z,99474.06
2023-04-02T11:43:32.808Z,99483.66
2023-04-02T11:46:40.678Z,99476.09
2023-04-02T11:50:04.465Z,99479.47
2023-04-02T11:53:16.306Z,99481.06
2023-04-02T11:56:31.962Z,99478.41
2023-04-02T11:59:50.736Z,99480.81
2023-04-02T12:03:03.579Z,99476.81
2023-04-02T12:06:39.917Z,99472.84
2023-04-02T12:09:59.080Z,99472.12
2023-04-02T12:13:02.037Z,99474.47
2023-04-02T12:16:06.634Z,99464.88
2023-04-02T12:19:10.002Z,99454.69
2023-04-02T12:22:25.053Z,99451.91
2023-04-02T12:25:32.820Z,99454.09
2023-04-02T12:28:38.044Z,99459.19
2023-04-02T12:31:46.500Z,99460.91
2023-04-02T12:34:51.334Z,99443.19
2023-04-02T12:37:54.398Z,99449.47
2023-04-02T12:40:59.825Z,99450.81
2023-04-02T12:44:15.554Z,99445.22
2023-04-02T12:47:18.476Z,99448.47
2023-04-02T12:50:22.963Z,99442.97
2023-04-02T12:53:41.207Z,99438.59
2023-04-02T12:56:44.827Z,99438.84
2023-04-02T12:59:48.052Z,99442.00
2023-04-02T13:03:15.005Z,99439.91
2023-04-02T13:06:23.215Z,99435.47
2023-04-02T13:09:36.174Z,99432.19
2023-04-02T13:12:41.145Z,99445.69
2023-04-02T13:15:44.407Z,99442.31
2023-04-02T13:18:49.142Z,99438.44
2023-04-02T13:21:53.095Z,99449.91
2023-04-02T13:24:56.360Z,99442.97
2023-04-02T13:27:59.248Z,99443.56
2023-04-02T13:31:02.246Z,99445.84
2023-04-02T13:34:05.067Z,99447.81
2023-04-02T13:37:12.226Z,99450.34
2023-04-02T13:40:17.913Z,99446.19
2023-04-02T13:43:22.957Z,99452.31
2023-04-02T13:46:31.159Z,99444.94
2023-04-02T13:49:34.061Z,99453.34
2023-04-02T13:52:37.387Z,99446.00
2023-04-02T13:55:42.465Z,99451.84
2023-04-02T13:58:47.981Z,99461.75
2023-04-02T14:01:53.361Z,99449.84
2023-04-02T14:05:27.338Z,99445.69
2023-04-02T14:09:02.185Z,99448.03
2023-04-02T14:12:05.080Z,99444.47
2023-04-02T14:15:29.752Z,99442.69
2023-04-02T14:19:06.766Z,99442.22
2023-04-02T14:22:30.468Z,99440.62
2023-04-02T14:26:05.520Z,99446.47
2023-04-02T14:32:39.043Z,99459.63
2023-04-02T14:35:48.623Z,99457.34
2023-04-02T14:39:17.583Z,99464.50
2023-04-02T14:43:05.126Z,99475.75
2023-04-02T14:46:10.606Z,99478.50
2023-04-02T14:49:24.251Z,99490.28
2023-04-02T14:52:31.667Z,99502.69
2023-04-02T14:55:43.623Z,99512.03
2023-04-02T14:58:52.677Z,99512.78
2023-04-02T15:02:08.924Z,99515.13
2023-04-02T15:05:24.485Z,99514.69
2023-04-02T15:09:09.356Z,99537.09
2023-04-02T15:12:27.749Z,99541.00
2023-04-02T15:15:49.006Z,99546.44
2023-04-02T15:19:00.711Z,99567.66
2023-04-02T15:22:15.765Z,99569.41
2023-04-02T15:25:42.898Z,99584.31
2023-04-02T15:29:29.018Z,99615.75
2023-04-02T15:32:32.542Z,99605.03
2023-04-02T15:36:15.700Z,99611.87
2023-04-02T15:39:52.467Z,99605.75
2023-04-02T15:43:15.466Z,99608.34
2023-04-02T15:46:18.345Z,99607.31
2023-04-02T15:49:33.682Z,99614.09
2023-04-02T15:52:57.592Z,99601.69
2023-04-02T15:56:33.838Z,99598.84
2023-04-02T15:59:43.070Z,99595.25
2023-04-02T16:03:02.638Z,99596.63
2023-04-02T16:06:17.519Z,99601.91
2023-04-02T16:09:27.369Z,99587.97
2023-04-02T16:12:33.537Z,99594.94
2023-04-02T16:15:42.481Z,99576.47
2023-04-02T16:19:20.929Z,99586.00
2023-04-02T16:22:30.040Z,99586.81
2023-04-02T16:25:44.937Z,99593.91
2023-04-02T16:29:10.066Z,99599.38
2023-04-02T16:32:37.771Z,99603.00
2023-04-02T16:36:02.536Z,99611.94
2023-04-02T16:39:17.543Z,99613.00
2023-04-02T16:42:50.788Z,99616.66
2023-04-02T16:45:56.196Z,99624.62
2023-04-02T16:49:07.267Z,99632.44
2023-04-02T16:52:40.656Z,99637.69
2023-04-02T16:56:20.104Z,99647.28
2023-04-02T17:00:07.755Z,99656.94
2023-04-02T17:03:33.234Z,99641.19
2023-04-02T17:06:42.160Z,99667.25
2023-04-02T17:09:53.272Z,99650.50
2023-04-02T17:13:15.497Z,99661.00
2023-04-02T17:16:31.144Z,99678.22
2023-04-02T17:19:34.105Z,99672.75
2023-04-02T17:22:37.025Z,99677.88
2023-04-02T17:25:48.187Z,99677.91
2023-04-02T17:28:51.577Z,99677.81
2023-04-02T17:32:01.356Z,99681.91
2023-04-02T17:35:21.958Z,99689.00
2023-04-02T17:38:39.792Z,99696.72
2023-04-02T17:41:54.959Z,99701.75
2023-04-02T17:45:49.428Z,99703.28
2023-04-02T17:49:03.920Z,99706.66
2023-04-02T17:52:23.191Z,99706.38
2023-04-02T17:55:50.587Z,99708.94
2023-04-02T17:59:20.961Z,99718.44
2023-04-02T18:03:02.188Z,99726.87
2023-04-02T18:06:11.608Z,99735.53
2023-04-02T18:09:37.291Z,99738.12
2023-04-02T18:12:45.943Z,99745.88
2023-04-02T18:15:58.313Z,99750.88
2023-04-02T18:19:14.959Z,99752.47
2023-04-02T18:22:58.288Z,99760.88
2023-04-02T18:26:01.192Z,99775.75
2023-04-02T18:29:12.306Z,99777.50
2023-04-02T18:32:17.811Z,99789.50
2023-04-02T18:36:05.328Z,99790.44
2023-04-02T18:39:21.729Z,99800.72
2023-04-02T18:42:43.194Z,99802.22
2023-04-02T18:45:58.870Z,99816.63
2023-04-02T18:49:19.607Z,99815.44
2023-04-02T18:52:24.869Z,99818.59
2023-04-02T18:55:31.460Z,99827.41
2023-04-02T18:58:49.803Z,99828.03
2023-04-02T19:01:54.878Z,99830.72
2023-04-02T19:05:23.059Z,99828.47
2023-04-02T19:08:50.955Z,99832.87
2023-04-02T19:11:53.884Z,99833.31
2023-04-02T19:14:58.990Z,99839.63
2023-04-02T19:18:04.984Z,99845.59
2023-04-02T19:21:45.649Z,99857.56
2023-04-02T19:25:00.580Z,99850.81
2023-04-02T19:28:17.651Z,99857.66
2023-04-02T19:31:53.242Z,99865.03
2023-04-02T19:35:27.051Z,99870.25
2023-04-02T19:39:01.000Z,99883.62
2023-04-02T19:42:15.757Z,99890.25
2023-04-02T19:45:24.394Z,99892.59
2023-04-02T19:48:35.706Z,99898.53
2023-04-02T19:51:38.556Z,99906.56
2023-04-02T19:54:41.594Z,99901.06
2023-04-02T19:57:44.576Z,99900.13
2023-04-02T20:00:47.504Z,99919.13
2023-04-02T20:03:50.513Z,99915.66
2023-04-02T20:06:54.372Z,99921.50
2023-04-02T20:09:57.259Z,99925.06
2023-04-02T20:13:00.070Z,99921.06
2023-04-02T20:16:04.685Z,99938.13
2023-04-02T20:19:07.686Z,99937.00
2023-04-02T20:22:10.725Z,99946.72
2023-04-02T20:25:13.842Z,99943.19
2023-04-02T20:28:16.693Z,99938.78
2023-04-02T20:31:19.633Z,99952.75
2023-04-02T20:34:22.652Z,99955.44
2023-04-02T20:37:25.709Z,99957.97
2023-04-02T20:40:28.778Z,99962.66
2023-04-02T20:43:32.074Z,99962.63
2023-04-02T20:46:34.766Z,99972.03
2023-04-02T20:49:37.846Z,99977.97
2023-04-02T20:52:40.922Z,99976.41
2023-04-02T20:55:45.857Z,99987.38
2023-04-02T20:58:49.272Z,99998.69
2023-04-02T21:01:52.098Z,100005.28
2023-04-02T21:04:54.930Z,100015.66
2023-04-02T21:07:58.091Z,100016.47
2023-04-02T21:11:02.802Z,100013.84
2023-04-02T21:14:05.754Z,100018.16
2023-04-02T21:17:08.888Z,100028.91
2023-04-02T21:20:12.568Z,100025.25
2023-04-02T21:23:15.997Z,100026.63
2023-04-02T21:26:19.042Z,100029.84
2023-04-02T21:29:21.933Z,100039.44
2023-04-02T21:32:25.079Z,100037.56
2023-04-02T21:35:27.942Z,100034.19
2023-04-02T21:38:31.186Z,100042.22
2023-04-02T21:41:36.733Z,100046.31
2023-04-02T21:44:39.618Z,100047.53
2023-04-02T21:47:42.448Z,100054.37
2023-04-02T21:50:45.268Z,100055.38
2023-04-02T21:53:49.235Z,100066.91
2023-04-02T21:56:52.747Z,100057.87
2023-04-02T21:59:57.013Z,100068.94
2023-04-02T22:02:59.941Z,100069.12
2023-04-02T22:06:08.097Z,100080.41
2023-04-02T22:09:14.361Z,100075.00
2023-04-02T22:12:17.142Z,100076.00
2023-04-02T22:15:19.997Z,100082.78
2023-04-02T22:18:22.869Z,100080.75
2023-04-02T22:21:26.341Z,100082.91
2023-04-02T22:24:29.394Z,100087.56
2023-04-02T22:27:33.363Z,100093.25
2023-04-02T22:30:37.750Z,100093.38
2023-04-02T22:33:42.120Z,100100.81
2023-04-02T22:36:44.902Z,100107.03
2023-04-02T22:39:47.793Z,100112.13
2023-04-02T22:42:50.792Z,100119.13
2023-04-02T22:45:53.770Z,100118.06
2023-04-02T22:48:56.974Z,100119.50
2023-04-02T22:51:59.875Z,100119.56
2023-04-02T22:55:02.853Z,100124.09
2023-04-02T22:58:05.810Z,100123.66
2023-04-02T23:01:19.423Z,100129.66
2023-04-02T23:04:22.235Z,100127.06
2023-04-02T23:07:25.068Z,100129.91
2023-04-02T23:10:28.836Z,100129.53
2023-04-02T23:13:36.831Z,100137.00
2023-04-02T23:16:39.645Z,100133.38
2023-04-02T23:19:42.674Z,100142.69
2023-04-02T23:22:45.560Z,100139.38
2023-04-02T23:25:48.394Z,100143.56
2023-04-02T23:28:51.429Z,100148.25
2023-04-02T23:31:54.269Z,100148.97
2023-04-02T23:34:57.282Z,100146.22
2023-04-02T23:38:00.128Z,100146.16
2023-04-02T23:41:03.192Z,100152.41
2023-04-02T23:44:08.749Z,100155.09
2023-04-02T23:47:11.560Z,100144.75
2023-04-02T23:50:14.544Z,100155.87
2023-04-02T23:53:18.725Z,100155.59
2023-04-02T23:56:22.485Z,100149.31
2023-04-02T23:59:25.485Z,100162.03
